createdAt,value
2022-08-10T00:00:07.138Z,59.51
2022-08-10T00:00:48.606Z,59.49
2022-08-10T00:01:20.556Z,60.34
2022-08-10T00:01:54.123Z,60.72
2022-08-10T00:02:27.275Z,61.03
2022-08-10T00:03:00.325Z,61.36
2022-08-10T00:03:32.294Z,61.71
2022-08-10T00:04:04.306Z,61.92
2022-08-10T00:04:36.204Z,62.23
2022-08-10T00:05:07.948Z,62.60
2022-08-10T00:05:43.655Z,63.07
2022-08-10T00:06:24.893Z,63.21
2022-08-10T00:06:56.694Z,62.65
2022-08-10T00:07:29.223Z,62.00
2022-08-10T00:08:00.952Z,60.99
2022-08-10T00:08:32.761Z,60.02
2022-08-10T00:09:04.574Z,59.09
2022-08-10T00:09:50.659Z,58.02
2022-08-10T00:10:26.163Z,57.57
2022-08-10T00:10:58.253Z,57.22
2022-08-10T00:11:30.129Z,57.38
2022-08-10T00:12:01.936Z,57.69
2022-08-10T00:12:33.944Z,58.00
2022-08-10T00:13:26.411Z,58.17
2022-08-10T00:13:58.291Z,59.12
2022-08-10T00:14:32.732Z,59.54
2022-08-10T00:15:06.231Z,60.11
2022-08-10T00:15:52.495Z,60.39
2022-08-10T00:16:25.373Z,60.46
2022-08-10T00:16:57.264Z,61.18
2022-08-10T00:17:29.223Z,61.43
2022-08-10T00:18:01.279Z,61.63
2022-08-10T00:18:35.815Z,61.94
2022-08-10T00:19:08.256Z,62.17
2022-08-10T00:20:02.589Z,62.38
2022-08-10T00:20:33.484Z,62.78
2022-08-10T00:21:06.956Z,62.89
2022-08-10T00:21:38.778Z,62.72
2022-08-10T00:22:11.160Z,61.85
2022-08-10T00:22:53.076Z,61.07
2022-08-10T00:23:29.866Z,60.24
2022-08-10T00:24:01.549Z,58.49
2022-08-10T00:24:33.397Z,57.31
2022-08-10T00:25:06.556Z,56.62
2022-08-10T00:25:38.317Z,56.26
2022-08-10T00:26:10.421Z,56.32
2022-08-10T00:27:52.952Z,56.52
2022-08-10T00:28:01.405Z,56.66
2022-08-10T00:28:27.441Z,57.14
2022-08-10T00:28:59.260Z,58.12
2022-08-10T00:29:31.249Z,58.67
2022-08-10T00:30:05.125Z,59.10
2022-08-10T00:30:37.153Z,59.31
2022-08-10T00:31:09.011Z,59.69
2022-08-10T00:31:58.736Z,60.10
2022-08-10T00:32:31.197Z,60.09
2022-08-10T00:33:03.218Z,60.71
2022-08-10T00:33:35.038Z,61.00
2022-08-10T00:34:07.199Z,61.42
2022-08-10T00:34:38.994Z,61.73
2022-08-10T00:35:10.805Z,61.96
2022-08-10T00:35:42.635Z,62.19
2022-08-10T00:36:14.425Z,62.44
2022-08-10T00:36:46.257Z,62.77
2022-08-10T00:37:18.465Z,63.10
2022-08-10T00:37:56.284Z,63.10
2022-08-10T00:38:30.013Z,62.85
2022-08-10T00:39:01.762Z,61.60
2022-08-10T00:39:36.376Z,60.62
2022-08-10T00:40:12.311Z,60.01
2022-08-10T00:40:44.140Z,58.66
2022-08-10T00:41:15.883Z,57.38
2022-08-10T00:42:01.780Z,56.83
2022-08-10T00:42:39.679Z,56.74
2022-08-10T00:43:11.335Z,56.79
2022-08-10T00:43:43.040Z,56.74
2022-08-10T00:44:14.851Z,57.02
2022-08-10T00:44:53.112Z,57.59
2022-08-10T00:45:25.049Z,57.89
2022-08-10T00:45:59.362Z,58.63
2022-08-10T00:46:32.202Z,59.11
2022-08-10T00:47:05.364Z,59.81
2022-08-10T00:47:37.827Z,60.35
2022-08-10T00:48:09.712Z,60.73
2022-08-10T00:48:41.664Z,61.22
2022-08-10T00:49:14.123Z,61.55
2022-08-10T00:49:46.507Z,61.96
2022-08-10T00:50:18.612Z,62.25
2022-08-10T00:50:50.693Z,62.47
2022-08-10T00:51:22.598Z,62.88
2022-08-10T00:52:14.273Z,63.70
2022-08-10T00:52:46.076Z,62.57
2022-08-10T00:53:17.833Z,61.73
2022-08-10T00:53:49.708Z,60.72
2022-08-10T00:54:25.001Z,59.77
2022-08-10T00:54:58.206Z,58.72
2022-08-10T00:55:30.607Z,57.41
2022-08-10T00:57:12.394Z,56.69
2022-08-10T00:57:16.020Z,56.33
2022-08-10T00:57:54.937Z,56.30
2022-08-10T00:58:27.613Z,56.87
2022-08-10T00:58:59.408Z,57.53
2022-08-10T00:59:32.808Z,58.02
2022-08-10T01:00:06.876Z,58.53
2022-08-10T01:00:39.190Z,59.11
2022-08-10T01:02:08.652Z,59.67
2022-08-10T01:02:09.524Z,59.61
2022-08-10T01:02:43.309Z,60.12
2022-08-10T01:03:17.024Z,60.61
2022-08-10T01:04:43.593Z,60.67
2022-08-10T01:05:05.733Z,61.06
2022-08-10T01:05:51.405Z,61.72
2022-08-10T01:06:26.836Z,61.93
2022-08-10T01:07:01.774Z,62.21
2022-08-10T01:07:42.432Z,62.48
2022-08-10T01:08:22.931Z,63.47
2022-08-10T01:09:06.166Z,64.40
2022-08-10T01:09:56.720Z,62.49
2022-08-10T01:10:41.729Z,63.74
2022-08-10T01:12:37.351Z,63.10
2022-08-10T01:12:41.604Z,60.03
2022-08-10T01:13:35.808Z,57.54
2022-08-10T01:14:30.910Z,57.18
2022-08-10T01:15:21.392Z,57.22
2022-08-10T01:16:03.339Z,57.58
2022-08-10T01:16:48.158Z,58.18
2022-08-10T01:17:50.521Z,58.54
2022-08-10T01:18:43.030Z,58.99
2022-08-10T01:19:48.900Z,59.54
2022-08-10T01:20:31.742Z,59.65
2022-08-10T01:21:24.494Z,60.47
2022-08-10T01:22:17.926Z,60.68
2022-08-10T01:23:17.741Z,60.97
2022-08-10T01:24:08.542Z,61.23
2022-08-10T01:25:26.630Z,61.70
2022-08-10T01:26:31.583Z,61.72
2022-08-10T01:27:03.757Z,61.90
2022-08-10T01:28:09.230Z,62.81
2022-08-10T01:29:00.791Z,65.12
2022-08-10T01:29:57.610Z,64.35
2022-08-10T01:30:32.127Z,63.06
2022-08-10T01:31:05.907Z,59.95
2022-08-10T01:31:42.875Z,58.81
2022-08-10T01:32:20.207Z,57.67
2022-08-10T01:33:06.886Z,57.03
2022-08-10T01:33:58.775Z,56.90
2022-08-10T01:34:57.881Z,57.04
2022-08-10T01:35:53.967Z,57.49
2022-08-10T01:36:41.230Z,58.20
2022-08-10T01:37:16.915Z,58.88
2022-08-10T01:37:58.647Z,59.52
2022-08-10T01:38:40.195Z,59.94
2022-08-10T01:39:19.826Z,60.24
2022-08-10T01:39:58.574Z,60.50
2022-08-10T01:40:33.858Z,60.79
2022-08-10T01:41:13.695Z,61.18
2022-08-10T01:41:50.538Z,61.50
2022-08-10T01:42:25.318Z,61.63
2022-08-10T01:43:08.469Z,61.83
2022-08-10T01:43:43.715Z,61.82
2022-08-10T01:44:23.565Z,62.13
2022-08-10T01:44:57.188Z,62.23
2022-08-10T01:45:45.187Z,62.59
2022-08-10T01:46:22.318Z,63.55
2022-08-10T01:47:22.221Z,63.16
2022-08-10T01:48:16.709Z,63.42
2022-08-10T01:48:53.138Z,61.99
2022-08-10T01:49:28.117Z,59.39
2022-08-10T01:50:09.917Z,58.05
2022-08-10T01:50:59.450Z,57.51
2022-08-10T01:51:55.070Z,57.02
2022-08-10T01:52:28.954Z,57.37
2022-08-10T01:53:11.957Z,57.96
2022-08-10T01:53:51.580Z,58.50
2022-08-10T01:54:26.742Z,59.26
2022-08-10T01:54:59.118Z,60.08
2022-08-10T01:55:32.872Z,60.52
2022-08-10T01:56:07.178Z,61.18
2022-08-10T01:56:43.381Z,61.70
2022-08-10T01:57:17.150Z,61.99
2022-08-10T01:57:54.933Z,62.60
2022-08-10T01:58:29.814Z,63.45
2022-08-10T01:59:16.261Z,63.78
2022-08-10T01:59:58.485Z,63.89
2022-08-10T02:00:37.566Z,63.11
2022-08-10T02:01:16.817Z,61.26
2022-08-10T02:01:58.906Z,60.50
2022-08-10T02:02:33.584Z,59.82
2022-08-10T02:03:08.472Z,57.84
2022-08-10T02:04:01.659Z,56.98
2022-08-10T02:04:37.765Z,56.66
2022-08-10T02:05:11.339Z,56.97
2022-08-10T02:05:44.680Z,57.43
2022-08-10T02:06:17.286Z,57.89
2022-08-10T02:06:51.914Z,58.14
2022-08-10T02:07:27.237Z,58.70
2022-08-10T02:08:02.692Z,58.98
2022-08-10T02:08:36.329Z,59.70
2022-08-10T02:09:10.767Z,60.17
2022-08-10T02:09:48.927Z,60.54
2022-08-10T02:10:23.786Z,60.80
2022-08-10T02:10:58.588Z,61.25
2022-08-10T02:11:30.473Z,61.50
2022-08-10T02:12:28.844Z,61.50
2022-08-10T02:13:02.545Z,62.09
2022-08-10T02:13:35.317Z,62.64
2022-08-10T02:14:08.911Z,63.05
2022-08-10T02:14:47.435Z,63.23
2022-08-10T02:15:21.565Z,63.04
2022-08-10T02:16:01.045Z,61.98
2022-08-10T02:16:36.506Z,61.38
2022-08-10T02:17:57.034Z,60.12
2022-08-10T02:18:05.973Z,59.68
2022-08-10T02:18:39.854Z,57.83
2022-08-10T02:19:16.016Z,57.56
2022-08-10T02:19:51.211Z,57.40
2022-08-10T02:20:27.185Z,57.83
2022-08-10T02:21:06.601Z,58.15
2022-08-10T02:21:40.083Z,58.66
2022-08-10T02:22:45.882Z,58.84
2022-08-10T02:23:24.576Z,59.60
2022-08-10T02:24:00.543Z,60.10
2022-08-10T02:24:33.896Z,60.60
2022-08-10T02:25:08.641Z,61.02
2022-08-10T02:25:43.844Z,61.34
2022-08-10T02:26:16.965Z,61.67
2022-08-10T02:26:50.073Z,62.01
2022-08-10T02:27:32.662Z,62.28
2022-08-10T02:28:07.121Z,62.72
2022-08-10T02:28:40.297Z,63.11
2022-08-10T02:29:15.610Z,63.00
2022-08-10T02:29:49.371Z,62.44
2022-08-10T02:30:22.644Z,61.65
2022-08-10T02:30:57.643Z,60.67
2022-08-10T02:31:31.743Z,60.07
2022-08-10T02:32:07.317Z,58.94
2022-08-10T02:32:43.222Z,57.71
2022-08-10T02:33:26.761Z,57.07
2022-08-10T02:33:59.446Z,56.94
2022-08-10T02:34:33.354Z,57.11
2022-08-10T02:35:13.265Z,57.40
2022-08-10T02:35:58.891Z,57.69
2022-08-10T02:36:33.779Z,58.35
2022-08-10T02:37:10.895Z,58.88
2022-08-10T02:37:47.276Z,59.21
2022-08-10T02:38:57.415Z,59.75
2022-08-10T02:39:18.621Z,59.81
2022-08-10T02:51:02.820Z,59.89
2022-08-10T02:52:06.289Z,60.08
2022-08-10T02:52:51.338Z,60.07
2022-08-10T02:53:55.305Z,60.79
2022-08-10T02:54:37.478Z,60.88
2022-08-10T02:55:20.208Z,61.76
2022-08-10T02:56:05.350Z,61.91
2022-08-10T02:56:51.843Z,62.51
2022-08-10T02:57:33.866Z,63.32
2022-08-10T02:58:17.678Z,63.16
2022-08-10T02:58:58.830Z,62.36
2022-08-10T02:59:39.873Z,61.22
2022-08-10T03:00:14.165Z,60.28
2022-08-10T03:00:52.042Z,59.10
2022-08-10T03:01:37.550Z,57.97
2022-08-10T03:02:17.088Z,57.41
2022-08-10T03:02:53.089Z,57.18
2022-08-10T03:03:37.954Z,57.31
2022-08-10T03:04:56.068Z,57.66
2022-08-10T03:05:27.076Z,58.19
2022-08-10T03:06:04.118Z,59.41
2022-08-10T03:06:44.135Z,59.72
2022-08-10T03:07:42.968Z,60.11
2022-08-10T03:08:18.587Z,60.32
2022-08-10T03:08:53.779Z,61.12
2022-08-10T03:09:29.360Z,61.43
2022-08-10T03:10:13.241Z,61.94
2022-08-10T03:10:49.933Z,61.68
2022-08-10T03:12:36.018Z,62.21
2022-08-10T03:12:38.470Z,62.29
2022-08-10T03:13:12.594Z,64.88
2022-08-10T03:13:59.660Z,64.98
2022-08-10T03:14:36.462Z,63.00
2022-08-10T03:15:15.869Z,61.51
2022-08-10T03:15:51.060Z,61.02
2022-08-10T03:16:26.208Z,59.82
2022-08-10T03:17:09.202Z,59.19
2022-08-10T03:17:57.417Z,57.85
2022-08-10T03:18:33.434Z,57.48
2022-08-10T03:20:34.032Z,57.54
2022-08-10T03:20:38.468Z,57.86
2022-08-10T03:20:59.125Z,58.51
2022-08-10T03:21:34.652Z,59.31
2022-08-10T03:22:08.932Z,59.79
2022-08-10T03:22:45.626Z,60.19
2022-08-10T03:23:22.042Z,60.75
2022-08-10T03:23:56.168Z,61.39
2022-08-10T03:24:33.498Z,61.98
2022-08-10T03:25:09.557Z,62.47
2022-08-10T03:25:54.018Z,63.12
2022-08-10T03:26:31.736Z,63.87
2022-08-10T03:27:05.900Z,63.35
2022-08-10T03:27:41.348Z,62.55
2022-08-10T03:28:21.263Z,61.89
2022-08-10T03:28:55.332Z,61.19
2022-08-10T03:29:29.200Z,59.67
2022-08-10T03:30:29.696Z,58.68
2022-08-10T03:30:59.717Z,57.85
2022-08-10T03:31:34.314Z,57.15
2022-08-10T03:32:14.339Z,57.12
2022-08-10T03:32:48.617Z,57.45
2022-08-10T03:33:24.583Z,57.79
2022-08-10T03:34:01.114Z,58.35
2022-08-10T03:34:36.290Z,58.79
2022-08-10T03:35:10.491Z,59.28
2022-08-10T03:35:43.583Z,59.76
2022-08-10T03:36:43.986Z,59.84
2022-08-10T03:37:17.994Z,60.68
2022-08-10T03:37:51.655Z,61.37
2022-08-10T03:38:34.189Z,61.50
2022-08-10T03:39:08.494Z,61.99
2022-08-10T03:39:43.739Z,62.19
2022-08-10T03:40:17.480Z,62.31
2022-08-10T03:40:52.627Z,62.87
2022-08-10T03:41:38.234Z,63.48
2022-08-10T03:42:15.731Z,63.97
2022-08-10T03:42:51.455Z,62.92
2022-08-10T03:43:27.723Z,62.02
2022-08-10T03:44:02.804Z,61.06
2022-08-10T03:44:37.721Z,59.96
2022-08-10T03:45:11.913Z,58.90
2022-08-10T03:45:55.725Z,57.96
2022-08-10T03:46:31.199Z,57.59
2022-08-10T03:47:15.961Z,57.39
2022-08-10T03:47:52.525Z,57.58
2022-08-10T03:48:47.124Z,58.10
2022-08-10T03:49:24.215Z,58.36
2022-08-10T03:49:59.341Z,59.54
2022-08-10T03:50:54.533Z,59.83
2022-08-10T03:51:28.747Z,60.81
2022-08-10T03:52:02.359Z,61.29
2022-08-10T03:52:36.574Z,61.82
2022-08-10T03:53:10.938Z,62.27
2022-08-10T03:54:07.228Z,62.67
2022-08-10T03:54:42.690Z,63.51
2022-08-10T03:56:26.705Z,63.26
2022-08-10T03:56:29.273Z,63.49
2022-08-10T03:57:03.217Z,62.93
2022-08-10T03:57:36.616Z,60.80
2022-08-10T03:58:22.840Z,60.70
2022-08-10T03:58:56.390Z,59.27
2022-08-10T03:59:31.731Z,58.42
2022-08-10T04:00:05.849Z,58.01
2022-08-10T04:00:39.718Z,57.94
2022-08-10T04:01:16.674Z,58.28
2022-08-10T04:02:46.061Z,58.65
2022-08-10T04:02:48.414Z,59.15
2022-08-10T04:03:22.285Z,60.14
2022-08-10T04:04:12.972Z,60.21
2022-08-10T04:04:48.041Z,60.04
2022-08-10T04:05:21.380Z,61.62
2022-08-10T04:05:54.767Z,62.17
2022-08-10T04:06:28.541Z,62.59
2022-08-10T04:07:03.674Z,63.19
2022-08-10T04:07:37.941Z,63.64
2022-08-10T04:08:11.138Z,63.27
2022-08-10T04:08:44.666Z,62.59
2022-08-10T04:09:17.747Z,62.17
2022-08-10T04:09:55.271Z,61.43
2022-08-10T04:10:29.743Z,60.94
2022-08-10T04:11:02.958Z,59.80
2022-08-10T04:11:37.331Z,59.00
2022-08-10T04:12:14.819Z,58.36
2022-08-10T04:12:48.034Z,58.02
2022-08-10T04:13:24.793Z,58.16
2022-08-10T04:13:57.968Z,58.43
2022-08-10T04:14:47.597Z,58.91
2022-08-10T04:15:26.643Z,59.23
2022-08-10T04:15:59.885Z,60.20
2022-08-10T04:16:35.198Z,60.62
2022-08-10T04:17:13.372Z,61.19
2022-08-10T04:18:04.578Z,61.50
2022-08-10T04:18:39.332Z,61.65
2022-08-10T04:19:15.961Z,62.75
2022-08-10T04:19:51.416Z,63.44
2022-08-10T04:20:34.821Z,63.60
2022-08-10T04:21:38.153Z,63.61
2022-08-10T04:22:18.263Z,63.58
2022-08-10T04:22:53.985Z,61.55
2022-08-10T04:23:31.298Z,60.22
2022-08-10T04:24:06.796Z,59.29
2022-08-10T04:24:42.232Z,58.18
2022-08-10T04:25:16.579Z,57.71
2022-08-10T04:25:51.560Z,57.78
2022-08-10T04:26:25.723Z,58.10
2022-08-10T04:26:58.921Z,58.66
2022-08-10T04:27:32.657Z,59.27
2022-08-10T04:28:07.945Z,59.75
2022-08-10T04:28:42.141Z,60.24
2022-08-10T04:29:15.419Z,60.78
2022-08-10T04:29:51.744Z,61.39
2022-08-10T04:30:27.799Z,61.81
2022-08-10T04:31:04.401Z,62.44
2022-08-10T04:31:39.136Z,63.16
2022-08-10T04:32:17.816Z,64.21
2022-08-10T04:32:55.731Z,64.19
2022-08-10T04:33:30.967Z,63.85
2022-08-10T04:34:08.406Z,62.68
2022-08-10T04:34:44.969Z,62.21
2022-08-10T04:35:20.385Z,61.78
2022-08-10T04:35:54.637Z,60.70
2022-08-10T04:36:29.355Z,60.36
2022-08-10T04:37:08.767Z,60.05
2022-08-10T04:37:47.096Z,59.62
2022-08-10T04:38:23.335Z,58.93
2022-08-10T04:38:56.985Z,58.85
2022-08-10T04:39:31.323Z,59.16
2022-08-10T04:40:05.751Z,59.49
2022-08-10T04:40:59.318Z,59.92
2022-08-10T04:41:32.911Z,61.07
2022-08-10T04:42:07.003Z,61.73
2022-08-10T04:42:40.265Z,62.43
2022-08-10T04:43:13.741Z,63.05
2022-08-10T04:43:47.837Z,63.73
2022-08-10T04:44:21.424Z,63.83
2022-08-10T04:44:55.427Z,63.47
2022-08-10T04:45:49.682Z,63.00
2022-08-10T04:46:42.831Z,62.90
2022-08-10T04:47:16.821Z,62.12
2022-08-10T04:48:08.108Z,61.51
2022-08-10T04:49:01.446Z,60.72
2022-08-10T04:49:56.558Z,59.00
2022-08-10T04:50:29.045Z,58.33
2022-08-10T04:51:05.254Z,58.12
2022-08-10T04:51:38.519Z,58.28
2022-08-10T04:52:11.686Z,58.72
2022-08-10T04:52:44.996Z,59.28
2022-08-10T04:53:18.134Z,59.77
2022-08-10T04:54:05.183Z,60.15
2022-08-10T04:54:41.754Z,60.39
2022-08-10T04:55:15.637Z,61.21
2022-08-10T04:55:48.883Z,61.70
2022-08-10T04:56:31.173Z,62.17
2022-08-10T04:57:05.937Z,62.32
2022-08-10T04:57:39.139Z,62.92
2022-08-10T04:58:12.290Z,62.90
2022-08-10T04:58:45.401Z,62.52
2022-08-10T04:59:18.624Z,61.93
2022-08-10T04:59:51.699Z,61.05
2022-08-10T05:00:24.933Z,60.25
2022-08-10T05:00:58.050Z,59.61
2022-08-10T05:02:21.374Z,58.90
2022-08-10T05:02:31.397Z,58.21
2022-08-10T05:03:05.869Z,57.91
2022-08-10T05:04:36.395Z,58.27
2022-08-10T05:04:36.983Z,58.53
2022-08-10T05:05:12.509Z,59.12
2022-08-10T05:05:46.411Z,59.94
2022-08-10T05:06:21.781Z,60.40
2022-08-10T05:06:54.923Z,61.03
2022-08-10T05:07:28.094Z,61.54
2022-08-10T05:08:01.432Z,62.03
2022-08-10T05:08:34.639Z,62.49
2022-08-10T05:09:07.795Z,63.06
2022-08-10T05:10:01.133Z,63.65
2022-08-10T05:10:35.741Z,64.48
2022-08-10T05:11:09.193Z,63.38
2022-08-10T05:11:42.431Z,62.92
2022-08-10T05:12:15.712Z,62.17
2022-08-10T05:12:48.821Z,61.56
2022-08-10T05:13:22.019Z,60.95
2022-08-10T05:13:55.137Z,60.19
2022-08-10T05:14:28.131Z,59.51
2022-08-10T05:15:01.318Z,58.66
2022-08-10T05:15:34.541Z,58.02
2022-08-10T05:16:07.920Z,58.05
2022-08-10T05:16:41.121Z,58.17
2022-08-10T05:17:14.278Z,58.59
2022-08-10T05:18:08.250Z,59.15
2022-08-10T05:18:40.623Z,59.63
2022-08-10T05:19:13.839Z,60.44
2022-08-10T05:20:04.987Z,60.70
2022-08-10T05:20:39.863Z,60.95
2022-08-10T05:22:03.114Z,61.86
2022-08-10T05:22:06.922Z,61.84
2022-08-10T05:22:46.627Z,62.74
2022-08-10T05:23:19.797Z,63.25
2022-08-10T05:23:53.010Z,63.42
2022-08-10T05:24:26.172Z,62.64
2022-08-10T05:24:59.297Z,62.25
2022-08-10T05:25:32.926Z,61.39
2022-08-10T05:26:11.146Z,60.79
2022-08-10T05:27:00.549Z,59.74
2022-08-10T05:27:39.556Z,59.24
2022-08-10T05:28:12.799Z,58.26
2022-08-10T05:28:45.987Z,57.93
2022-08-10T05:29:19.213Z,58.12
2022-08-10T05:30:01.254Z,58.67
2022-08-10T05:30:36.850Z,59.08
2022-08-10T05:31:10.093Z,59.53
2022-08-10T05:31:49.941Z,59.90
2022-08-10T05:32:23.036Z,60.59
2022-08-10T05:33:00.753Z,60.79
2022-08-10T05:33:35.986Z,60.88
2022-08-10T05:34:20.780Z,61.21
2022-08-10T05:34:54.534Z,61.35
2022-08-10T05:35:52.441Z,61.93
2022-08-10T05:36:24.578Z,61.60
2022-08-10T05:36:58.345Z,62.14
2022-08-10T05:38:12.872Z,62.23
2022-08-10T05:38:28.286Z,62.94
2022-08-10T05:39:02.649Z,63.00
2022-08-10T05:39:38.264Z,62.75
2022-08-10T05:40:12.560Z,61.98
2022-08-10T05:40:48.085Z,61.51
2022-08-10T05:41:22.371Z,60.61
2022-08-10T05:41:56.280Z,60.01
2022-08-10T05:42:35.941Z,59.50
2022-08-10T05:43:09.201Z,58.58
2022-08-10T05:43:42.425Z,58.19
2022-08-10T05:44:15.723Z,57.97
2022-08-10T05:44:48.919Z,57.97
2022-08-10T05:45:27.303Z,58.48
2022-08-10T05:46:19.637Z,59.16
2022-08-10T05:46:53.577Z,59.80
2022-08-10T05:47:27.214Z,60.58
2022-08-10T05:48:53.920Z,60.84
2022-08-10T05:49:00.525Z,61.06
2022-08-10T05:49:35.022Z,61.75
2022-08-10T05:50:08.951Z,62.09
2022-08-10T05:50:42.392Z,62.33
2022-08-10T05:51:17.039Z,62.36
2022-08-10T05:51:53.389Z,62.94
2022-08-10T05:52:27.193Z,63.35
2022-08-10T05:53:23.086Z,63.68
2022-08-10T05:54:03.114Z,63.96
2022-08-10T05:54:40.436Z,62.71
2022-08-10T05:55:13.867Z,61.38
2022-08-10T05:55:51.553Z,60.42
2022-08-10T05:56:24.721Z,59.66
2022-08-10T05:56:58.488Z,58.78
2022-08-10T05:57:32.153Z,57.85
2022-08-10T05:58:05.325Z,57.67
2022-08-10T05:58:39.286Z,57.77
2022-08-10T05:59:15.042Z,57.87
2022-08-10T06:00:11.101Z,58.04
2022-08-10T06:00:54.784Z,58.55
2022-08-10T06:01:29.063Z,59.39
2022-08-10T06:02:30.841Z,60.18
2022-08-10T06:03:04.444Z,60.49
2022-08-10T06:03:47.213Z,61.53
2022-08-10T06:04:29.800Z,62.35
2022-08-10T06:05:10.864Z,61.98
2022-08-10T06:05:47.488Z,62.47
2022-08-10T06:06:25.017Z,62.97
2022-08-10T06:07:01.834Z,62.80
2022-08-10T06:07:38.283Z,62.33
2022-08-10T06:08:21.886Z,62.14
2022-08-10T06:08:57.410Z,61.30
2022-08-10T06:09:32.701Z,60.17
2022-08-10T06:10:10.202Z,59.32
2022-08-10T06:12:16.455Z,58.16
2022-08-10T06:12:26.978Z,57.76
2022-08-10T06:12:55.035Z,57.91
2022-08-10T06:14:00.000Z,58.53
2022-08-10T06:15:05.364Z,59.40
2022-08-10T06:15:51.480Z,59.26
2022-08-10T06:16:27.058Z,59.75
2022-08-10T06:17:01.608Z,60.78
2022-08-10T06:17:37.527Z,61.28
2022-08-10T06:18:14.162Z,61.65
2022-08-10T06:18:49.093Z,62.09
2022-08-10T06:19:23.185Z,62.34
2022-08-10T06:20:01.226Z,62.70
2022-08-10T06:20:36.258Z,63.38
2022-08-10T06:21:09.980Z,63.87
2022-08-10T06:22:00.493Z,62.77
2022-08-10T06:22:36.028Z,62.61
2022-08-10T06:23:11.812Z,61.50
2022-08-10T06:23:46.285Z,60.03
2022-08-10T06:24:25.460Z,58.81
2022-08-10T06:26:10.141Z,58.19
2022-08-10T06:26:45.713Z,58.31
2022-08-10T06:27:19.016Z,58.49
2022-08-10T06:28:16.875Z,58.74
2022-08-10T06:29:02.765Z,58.72
2022-08-10T06:29:44.606Z,59.07
2022-08-10T06:30:20.922Z,60.21
2022-08-10T06:30:56.563Z,60.89
2022-08-10T06:31:46.895Z,61.21
2022-08-10T06:32:28.068Z,61.61
2022-08-10T06:33:04.514Z,61.81
2022-08-10T06:33:40.805Z,61.82
2022-08-10T06:34:16.377Z,61.88
2022-08-10T06:34:55.518Z,61.84
2022-08-10T06:35:35.658Z,62.49
2022-08-10T06:36:10.911Z,62.81
2022-08-10T06:36:46.084Z,62.69
2022-08-10T06:37:22.828Z,62.78
2022-08-10T06:38:03.130Z,62.15
2022-08-10T06:38:38.344Z,61.58
2022-08-10T06:39:32.531Z,60.50
2022-08-10T06:40:06.366Z,59.64
2022-08-10T06:40:43.722Z,58.90
2022-08-10T06:41:22.585Z,58.41
2022-08-10T06:42:21.307Z,57.64
2022-08-10T06:42:56.856Z,57.85
2022-08-10T06:43:36.811Z,58.09
2022-08-10T06:44:19.555Z,58.27
2022-08-10T06:44:52.678Z,58.76
2022-08-10T06:45:31.743Z,58.99
2022-08-10T06:46:15.897Z,58.89
2022-08-10T06:46:51.211Z,59.13
2022-08-10T06:47:43.821Z,58.99
2022-08-10T06:48:21.897Z,59.87
2022-08-10T06:49:00.814Z,59.48
2022-08-10T06:49:36.514Z,58.64
2022-08-10T06:50:35.015Z,59.38
2022-08-10T06:51:26.360Z,58.87
2022-08-10T06:52:03.097Z,59.14
2022-08-10T06:52:38.524Z,58.69
2022-08-10T06:53:16.748Z,59.18
2022-08-10T06:53:55.225Z,59.51
2022-08-10T06:54:31.506Z,59.46
2022-08-10T06:55:09.031Z,59.84
2022-08-10T06:55:55.467Z,59.99
2022-08-10T06:56:41.461Z,60.25
2022-08-10T06:57:25.196Z,59.95
2022-08-10T06:58:01.222Z,60.26
2022-08-10T06:58:41.728Z,59.70
2022-08-10T06:59:42.344Z,59.60
2022-08-10T07:00:20.444Z,59.90
2022-08-10T07:00:55.869Z,60.16
2022-08-10T07:01:38.037Z,60.25
2022-08-10T07:02:15.972Z,60.25
2022-08-10T07:02:59.436Z,59.96
2022-08-10T07:03:39.278Z,59.70
2022-08-10T07:04:19.431Z,59.72
2022-08-10T07:05:11.467Z,59.57
2022-08-10T07:05:51.158Z,59.89
2022-08-10T07:06:25.545Z,60.06
2022-08-10T07:07:05.015Z,60.12
2022-08-10T07:07:43.278Z,60.41
2022-08-10T07:08:23.872Z,60.66
2022-08-10T07:08:58.895Z,60.39
2022-08-10T07:09:36.120Z,60.45
2022-08-10T07:10:10.823Z,60.24
2022-08-10T07:10:46.803Z,60.12
2022-08-10T07:11:22.330Z,60.08
2022-08-10T07:11:58.458Z,60.11
2022-08-10T07:12:44.983Z,60.28
2022-08-10T07:14:14.384Z,60.86
2022-08-10T07:14:18.475Z,61.03
2022-08-10T07:14:54.788Z,61.03
2022-08-10T07:15:59.746Z,61.20
2022-08-10T07:16:28.839Z,60.84
2022-08-10T07:17:03.474Z,60.71
2022-08-10T07:17:39.616Z,60.37
2022-08-10T07:18:13.261Z,60.61
2022-08-10T07:18:48.333Z,60.63
2022-08-10T07:19:24.614Z,60.59
2022-08-10T07:20:04.356Z,60.77
2022-08-10T07:20:40.212Z,60.88
2022-08-10T07:21:15.539Z,60.97
2022-08-10T07:21:51.034Z,60.53
2022-08-10T07:23:08.154Z,60.22
2022-08-10T07:23:57.814Z,60.47
2022-08-10T07:24:25.574Z,60.25
2022-08-10T07:25:00.364Z,60.26
2022-08-10T07:25:35.447Z,60.21
2022-08-10T07:26:10.243Z,60.15
2022-08-10T07:26:50.980Z,60.09
2022-08-10T07:27:25.191Z,59.96
2022-08-10T07:28:01.973Z,59.99
2022-08-10T07:28:37.071Z,59.71
2022-08-10T07:29:53.016Z,59.48
2022-08-10T07:30:06.181Z,59.37
2022-08-10T07:30:42.173Z,59.72
2022-08-10T07:31:33.046Z,59.64
2022-08-10T07:32:14.711Z,60.01
2022-08-10T07:32:51.240Z,60.01
2022-08-10T07:33:26.135Z,59.81
2022-08-10T07:34:00.688Z,59.55
2022-08-10T07:34:37.379Z,59.29
2022-08-10T07:35:13.922Z,59.25
2022-08-10T07:35:49.402Z,59.08
2022-08-10T07:36:24.215Z,59.12
2022-08-10T07:37:07.942Z,59.00
2022-08-10T07:37:43.041Z,58.50
2022-08-10T07:38:27.405Z,58.81
2022-08-10T07:39:02.498Z,58.89
2022-08-10T07:40:04.049Z,59.07
2022-08-10T07:40:39.696Z,59.03
2022-08-10T07:41:16.122Z,59.03
2022-08-10T07:41:55.560Z,59.06
2022-08-10T07:42:34.495Z,59.18
2022-08-10T07:43:10.584Z,59.02
2022-08-10T07:43:46.014Z,58.54
2022-08-10T07:44:21.430Z,57.99
2022-08-10T07:44:54.768Z,58.24
2022-08-10T07:45:32.110Z,58.07
2022-08-10T07:46:12.388Z,58.21
2022-08-10T07:46:50.819Z,58.52
2022-08-10T07:47:52.396Z,58.17
2022-08-10T07:48:27.848Z,58.24
2022-08-10T07:49:15.255Z,57.90
2022-08-10T07:49:58.221Z,57.77
2022-08-10T07:50:35.281Z,57.46
2022-08-10T07:51:11.792Z,57.42
2022-08-10T07:51:45.214Z,57.45
2022-08-10T07:52:29.467Z,57.51
2022-08-10T07:53:05.262Z,57.67
2022-08-10T07:53:44.420Z,57.41
2022-08-10T07:54:21.178Z,57.46
2022-08-10T07:54:56.098Z,57.25
2022-08-10T07:56:04.913Z,57.35
2022-08-10T07:56:48.043Z,57.49
2022-08-10T07:57:31.435Z,57.64
2022-08-10T07:58:06.677Z,57.77
2022-08-10T07:58:51.733Z,57.64
2022-08-10T07:59:38.267Z,57.49
2022-08-10T08:00:13.053Z,57.27
2022-08-10T08:00:48.639Z,57.25
2022-08-10T08:01:28.228Z,57.18
2022-08-10T08:02:03.699Z,57.36
2022-08-10T08:02:45.671Z,57.47
2022-08-10T08:03:25.329Z,56.94
2022-08-10T08:04:10.653Z,56.87
2022-08-10T08:04:46.396Z,57.15
2022-08-10T08:05:27.564Z,57.32
2022-08-10T08:06:18.066Z,57.27
2022-08-10T08:06:52.485Z,57.11
2022-08-10T08:07:27.904Z,56.93
2022-08-10T08:08:03.523Z,56.66
2022-08-10T08:08:39.149Z,56.13
2022-08-10T08:09:12.686Z,55.93
2022-08-10T08:09:57.698Z,56.08
2022-08-10T08:10:35.696Z,56.14
2022-08-10T08:11:25.758Z,56.03
2022-08-10T08:12:00.983Z,56.15
2022-08-10T08:12:37.012Z,56.29
2022-08-10T08:13:13.900Z,56.28
2022-08-10T08:13:49.476Z,56.31
2022-08-10T08:14:27.903Z,56.27
2022-08-10T08:15:14.780Z,56.01
2022-08-10T08:16:18.097Z,56.35
2022-08-10T08:16:57.222Z,56.17
2022-08-10T08:17:35.670Z,55.87
2022-08-10T08:18:11.922Z,55.46
2022-08-10T08:18:54.238Z,55.06
2022-08-10T08:19:46.053Z,54.81
2022-08-10T08:20:30.667Z,54.75
2022-08-10T08:24:02.496Z,54.57
2022-08-10T08:24:05.429Z,54.60
2022-08-10T08:24:06.415Z,54.57
2022-08-10T08:24:07.809Z,54.72
2022-08-10T08:24:44.490Z,55.15
2022-08-10T08:25:21.164Z,55.11
2022-08-10T08:25:56.651Z,54.75
2022-08-10T08:26:30.801Z,54.64
2022-08-10T08:27:08.286Z,54.47
2022-08-10T08:27:47.626Z,54.43
2022-08-10T08:28:22.249Z,54.60
2022-08-10T08:28:57.460Z,54.89
2022-08-10T08:29:42.208Z,55.18
2022-08-10T08:30:16.901Z,54.86
2022-08-10T08:31:02.789Z,54.57
2022-08-10T08:31:37.379Z,54.71
2022-08-10T08:32:31.976Z,54.90
2022-08-10T08:33:07.636Z,54.76
2022-08-10T08:33:45.282Z,54.40
2022-08-10T08:34:20.611Z,54.51
2022-08-10T08:35:04.894Z,54.08
2022-08-10T08:35:38.520Z,53.75
2022-08-10T08:36:17.731Z,53.75
2022-08-10T08:36:56.038Z,53.70